Latest Weather Observations for Warwick

IDQ60801

Issued at 7:02 am EST Friday 18 August 2017 (issued every 30 minutes, with the page automatically refreshed every 10 minutes)

About weather observations | Map of weather stations | Latest weather observations for QLD | Other Formats
Station Details ID: 041525 Name: WARWICK Lat: -28.21 Lon: 152.10 Height: 475.4 m
Data from the previous 72 hours. | See also: Recent months at Warwick
Date/Time
EST
Temp
°C
App
Temp
°C
Dew
Point
°C
Rel
Hum
%
Delta-T
°C
Wind Press
QNH
hPa
Press
MSL
hPa
Rain since
9am
mm
Dir  Spd
km/h
Gust
km/h
Spd
kts
Gust
kts
18/07:00am 8.1 5.3 -0.3 55 3.4 SW 4 9 2 5 1015.3 1015.1 0.0
18/06:30am 7.5 4.6 -0.8 55 3.3 SW 4 7 2 4 1014.9 1014.8 0.0
18/06:00am 7.3 5.2 -0.8 56 3.2 CALM 0 2 0 1 1014.6 1014.5 0.0
18/05:30am 6.9 4.8 -0.7 58 3.0 CALM 0 0 0 0 1014.4 1014.3 0.0
18/05:00am 7.0 4.9 -0.9 57 3.1 CALM 0 0 0 0 1014.3 1014.1 0.0
18/04:30am 6.6 4.3 0.1 63 2.6 WSW 2 7 1 4 1014.1 1013.9 0.0
18/04:00am 9.0 6.6 0.0 53 3.7 WNW 2 7 1 4 1013.9 1013.7 0.0
18/03:30am 8.3 6.4 0.5 58 3.2 CALM 0 6 0 3 1013.7 1013.5 0.0
18/03:00am 7.3 5.4 0.7 63 2.7 CALM 0 0 0 0 1013.6 1013.4 0.0
18/02:30am 5.9 4.1 1.3 72 1.9 CALM 0 0 0 0 1013.8 1013.6 0.0
18/02:00am 8.2 6.4 1.0 60 3.0 CALM 0 6 0 3 1013.9 1013.7 0.0
18/01:30am 10.7 8.9 1.1 51 4.1 CALM 0 0 0 0 1014.0 1013.8 0.0
18/01:00am 11.1 8.7 2.2 54 3.9 W 4 7 2 4 1014.2 1014.0 0.0
18/12:30am 12.0 9.8 1.2 47 4.7 WNW 2 6 1 3 1014.3 1014.1 0.0
18/12:00am 11.8 9.2 0.9 47 4.7 WNW 4 7 2 4 1014.3 1014.1 0.0
 
Date/Time
EST
Temp
°C
App
Temp
°C
Dew
Point
°C
Rel
Hum
%
Delta-T
°C
Wind Press
QNH
hPa
Press
MSL
hPa
Rain since
9am
mm
Dir  Spd
km/h
Gust
km/h
Spd
kts
Gust
kts
17/11:30pm 9.7 7.9 1.2 55 3.6 CALM 0 2 0 1 1014.3 1014.1 0.0
17/11:00pm 12.9 11.2 1.9 47 4.9 CALM 0 0 0 0 1014.3 1014.1 0.0
17/10:30pm 13.8 11.1 2.9 47 5.0 W 6 9 3 5 1014.3 1014.1 0.0
17/10:00pm 13.9 10.9 2.1 45 5.3 W 7 9 4 5 1014.3 1014.1 0.0
17/09:30pm 14.4 11.6 2.3 44 5.5 W 6 9 3 5 1014.2 1014.0 0.0
17/09:00pm 14.8 12.2 3.4 46 5.3 W 6 9 3 5 1014.2 1014.0 0.0
17/08:30pm 16.1 13.4 3.6 43 5.9 W 7 11 4 6 1014.1 1013.9 0.0
17/08:00pm 17.0 14.4 4.4 43 6.1 W 7 11 4 6 1013.8 1013.6 0.0
17/07:30pm 18.0 15.1 4.5 41 6.6 W 9 15 5 8 1013.4 1013.2 0.0
17/07:00pm 18.6 15.7 4.6 39 6.9 W 9 15 5 8 1012.9 1012.7 0.0
17/06:30pm 18.5 16.7 5.2 41 6.6 W 4 7 2 4 1012.4 1012.2 0.0
17/06:00pm 20.6 16.9 4.5 34 8.0 W 13 24 7 13 1011.8 1011.6 0.0
17/05:30pm 21.2 18.1 5.5 36 8.0 W 11 20 6 11 1011.5 1011.3 0.0
17/05:00pm 23.1 18.8 5.1 31 9.2 W 17 24 9 13 1011.2 1011.0 0.0
17/04:30pm 23.9 18.1 4.4 28 9.9 W 24 41 13 22 1010.9 1010.7 0.0
17/04:07pm 24.3 17.8 4.5 27 10.1 WNW 28 48 15 26 1010.8 1010.5 0.0
17/04:00pm 24.5 17.7 4.9 28 10.1 W 30 44 16 24 1010.7 1010.4 0.0
17/03:30pm 25.4 20.4 6.4 29 10.1 W 22 37 12 20 1010.3 1010.1 0.0
17/03:00pm 25.7 20.7 6.3 29 10.3 W 22 39 12 21 1010.3 1010.1 0.0
17/02:30pm 26.3 20.9 6.2 27 10.7 W 24 35 13 19 1010.3 1010.1 0.0
17/02:00pm 26.1 21.0 6.1 28 10.6 WSW 22 41 12 22 1010.4 1010.2 0.0
17/01:30pm 26.0 21.1 6.8 29 10.3 W 22 39 12 21 1010.7 1010.4 0.0
17/01:00pm 26.0 20.9 6.0 27 10.6 WSW 22 35 12 19 1010.7 1010.4 0.0
17/12:30pm 26.0 21.4 6.5 28 10.4 W 20 35 11 19 1011.1 1010.9 0.0
17/12:00pm 24.6 20.2 7.3 33 9.3 WNW 20 28 11 15 1011.7 1011.5 0.0
17/11:30am 24.0 18.3 6.6 32 9.2 WNW 26 43 14 23 1012.2 1012.0 0.0
17/11:00am 23.4 18.9 7.0 34 8.7 W 20 33 11 18 1012.8 1012.6 0.0
17/10:30am 23.3 20.3 7.6 36 8.4 WNW 13 22 7 12 1013.2 1013.0 0.0
17/10:00am 21.9 18.0 7.1 38 7.8 NW 17 24 9 13 1013.5 1013.3 0.0
17/09:30am 20.8 17.1 7.8 43 6.9 NW 17 24 9 13 1013.7 1013.5 0.0
17/09:00am 19.4 15.6 7.5 46 6.2 NW 17 26 9 14 1013.8 1013.6 0.0
17/08:30am 18.1 16.9 8.0 51 5.3 SW 4 11 2 6 1013.8 1013.6 0.0
17/08:00am 12.9 11.8 6.8 66 3.0 SSW 2 7 1 4 1013.7 1013.5 0.0
17/07:30am 11.2 10.4 6.4 72 2.3 CALM 0 0 0 0 1013.5 1013.3 0.0
17/07:00am 9.5 8.7 6.6 82 1.4 CALM 0 6 0 3 1013.4 1013.2 0.0
17/06:30am 7.0 4.5 5.0 87 0.9 SSW 7 13 4 7 1013.2 1013.0 0.0
17/06:00am 8.7 6.6 5.9 82 1.3 S 6 11 3 6 1012.8 1012.6 0.0
17/05:30am 9.4 7.9 6.7 83 1.3 SSW 4 7 2 4 1012.5 1012.3 0.0
17/05:00am 10.4 8.2 6.2 75 2.0 SSW 7 13 4 7 1012.2 1012.0 0.0
17/04:51am 11.3 8.7 6.1 70 2.5 SSW 9 19 5 10 1012.1 1011.9 0.0
17/04:30am 16.5 12.7 7.6 55 4.6 N 17 22 9 12 1012.0 1011.8 0.0
17/04:00am 14.5 12.6 6.7 59 3.9 NNW 6 17 3 9 1012.1 1011.9 0.0
17/03:30am 14.7 13.3 7.2 61 3.8 W 4 11 2 6 1012.1 1011.9 0.0
17/03:00am 16.7 13.2 7.3 54 4.8 N 15 19 8 10 1012.0 1011.8 0.0
17/02:30am 17.7 13.9 7.4 51 5.3 NNW 17 26 9 14 1012.2 1012.0 0.0
17/02:00am 17.7 13.4 7.2 50 5.4 N 19 24 10 13 1012.3 1012.1 0.0
17/01:30am 18.7 14.5 7.6 48 5.8 N 19 28 10 15 1012.3 1012.1 0.0
17/01:00am 20.3 16.5 7.6 44 6.7 NNW 17 32 9 17 1012.4 1012.2 0.0
17/12:30am 21.2 16.8 7.4 41 7.3 NW 20 32 11 17 1012.5 1012.3 0.0
17/12:00am 20.5 16.0 7.1 42 7.0 NW 20 32 11 17 1012.9 1012.7 0.0
 
Date/Time
EST
Temp
°C
App
Temp
°C
Dew
Point
°C
Rel
Hum
%
Delta-T
°C
Wind Press
QNH
hPa
Press
MSL
hPa
Rain since
9am
mm
Dir  Spd
km/h
Gust
km/h
Spd
kts
Gust
kts
16/11:30pm 19.9 16.4 7.3 44 6.6 WNW 15 24 8 13 1012.9 1012.7 0.0
16/11:00pm 20.3 17.2 7.1 42 6.9 WNW 13 20 7 11 1012.6 1012.5 0.0
16/10:30pm 19.3 16.8 6.7 44 6.5 NW 9 17 5 9 1012.5 1012.3 0.0
16/10:00pm 20.8 16.7 6.2 38 7.5 NNW 17 26 9 14 1012.4 1012.2 0.0
16/09:30pm 21.5 16.9 5.7 35 8.1 N 19 30 10 16 1012.0 1011.8 0.0
16/09:00pm 22.0 17.2 4.8 32 8.7 NNW 19 30 10 16 1011.8 1011.6 0.0
16/08:30pm 21.3 16.9 4.5 33 8.4 N 17 24 9 13 1011.5 1011.3 0.0
16/08:00pm 23.7 19.3 4.7 29 9.7 NNW 17 24 9 13 1011.3 1011.1 0.0
16/07:30pm 24.2 19.3 4.3 27 10.1 NNW 19 28 10 15 1010.9 1010.7 0.0
16/07:00pm 25.0 20.6 4.5 26 10.5 NW 17 26 9 14 1010.6 1010.3 0.0
16/06:30pm 25.5 20.6 4.2 25 10.9 NW 19 28 10 15 1010.3 1010.1 0.0
16/06:00pm 25.4 21.7 4.6 26 10.7 NW 13 24 7 13 1010.0 1009.8 0.0
16/05:30pm 25.9 21.5 4.6 25 11.0 NW 17 24 9 13 1009.7 1009.5 0.0
16/05:00pm 27.1 21.5 3.7 22 12.0 WNW 22 39 12 21 1009.5 1009.3 0.0
16/04:30pm 27.9 21.0 2.5 19 12.8 WNW 28 46 15 25 1009.3 1009.1 0.0
16/04:00pm 28.3 21.4 2.3 18 13.1 WNW 28 46 15 25 1008.9 1008.6 0.0
16/03:30pm 28.6 21.0 2.6 19 13.2 WNW 32 50 17 27 1008.8 1008.5 0.0
16/03:00pm 28.7 22.0 3.5 20 13.0 WNW 28 46 15 25 1009.0 1008.8 0.0
16/02:30pm 29.0 22.3 3.4 19 13.2 W 28 46 15 25 1009.1 1008.9 0.0
16/02:19pm 29.1 22.3 3.3 19 13.3 W 28 46 15 25 1009.1 1008.9 0.0
16/02:00pm 28.9 23.0 3.9 20 13.0 WNW 24 44 13 24 1009.3 1009.1 0.0
16/01:30pm 28.2 21.6 4.1 21 12.5 WNW 28 52 15 28 1009.7 1009.5 0.0
16/01:28pm 28.3 21.7 4.0 21 12.6 WNW 28 52 15 28 1009.8 1009.6 0.0
16/01:00pm 27.3 21.5 6.2 26 11.3 NW 26 44 14 24 1010.4 1010.2 0.0
16/12:30pm 27.0 21.6 6.2 26 11.1 NW 24 43 13 23 1011.1 1010.9 0.0
16/12:00pm 26.9 20.8 6.4 27 11.0 WNW 28 44 15 24 1011.6 1011.4 0.0
16/11:48am 25.9 19.7 6.1 28 10.5 NW 28 46 15 25 1012.0 1011.8 0.0
16/11:30am 25.6 19.0 5.9 28 10.4 NW 30 46 16 25 1012.3 1012.1 0.0
16/11:26am 25.7 19.4 5.7 27 10.5 WNW 28 46 15 25 1012.4 1012.2 0.0
16/11:00am 25.7 20.0 6.6 29 10.2 NW 26 43 14 23 1012.9 1012.7 0.0
16/10:42am 24.5 18.4 6.6 31 9.5 NW 28 48 15 26 1013.2 1013.0 0.0
16/10:30am 24.1 18.1 7.0 33 9.1 NNW 28 41 15 22 1013.5 1013.3 0.0
16/10:00am 23.5 17.9 7.1 35 8.7 NW 26 35 14 19 1013.8 1013.6 0.0
16/09:40am 22.8 16.7 6.6 35 8.5 NW 28 52 15 28 1014.1 1013.9 0.0
16/09:30am 22.9 18.4 7.0 36 8.4 NW 20 32 11 17 1014.3 1014.1 0.0
16/09:00am 20.8 19.0 7.0 40 7.2 SE 6 24 3 13 1014.5 1014.4 0.0
16/08:30am 15.9 14.8 5.3 49 5.2 CALM 0 0 0 0 1014.7 1014.6 0.0
16/08:00am 12.4 10.0 4.5 58 3.7 SSW 6 7 3 4 1014.9 1014.8 0.0
16/07:30am 11.2 8.9 4.8 64 3.0 WSW 6 9 3 5 1014.7 1014.6 0.0
16/07:00am 8.4 5.7 3.7 72 2.1 WSW 7 11 4 6 1014.7 1014.6 0.0
16/06:30am 11.0 8.3 3.5 60 3.4 NNW 7 15 4 8 1014.4 1014.3 0.0
16/06:20am 13.4 10.2 3.1 49 4.7 NNW 9 17 5 9 1014.3 1014.1 0.0
16/06:00am 8.1 5.8 2.5 68 2.4 SW 4 9 2 5 1014.1 1013.9 0.0
16/05:30am 9.0 7.4 4.4 73 2.1 W 2 9 1 5 1013.8 1013.6 0.0
16/05:00am 7.4 4.6 3.0 73 1.9 W 7 11 4 6 1013.7 1013.5 0.0
16/04:30am 7.0 5.5 2.8 74 1.8 CALM 0 6 0 3 1013.4 1013.2 0.0
16/04:00am 6.2 4.7 2.9 79 1.4 CALM 0 7 0 4 1013.8 1013.6 0.0
16/03:30am 6.9 4.8 1.9 70 2.1 WNW 2 9 1 5 1013.9 1013.7 0.0
16/03:28am 7.2 5.1 1.7 68 2.3 WNW 2 11 1 6 1013.9 1013.7 0.0
16/03:13am 12.2 8.5 2.6 52 4.3 WNW 11 15 6 8 1013.9 1013.7 0.0
16/03:00am 6.7 5.2 3.0 77 1.6 CALM 0 9 0 5 1013.9 1013.7 0.0
16/02:30am 6.6 5.2 3.4 80 1.4 CALM 0 0 0 0 1014.0 1013.8 0.0
16/02:00am 7.0 4.1 2.6 73 1.9 SSW 7 9 4 5 1014.2 1014.0 0.0
16/01:30am 6.5 3.7 2.2 74 1.8 SW 6 11 3 6 1014.3 1014.1 0.0
16/01:00am 7.4 5.8 2.2 69 2.2 CALM 0 0 0 0 1014.6 1014.5 0.0
16/12:30am 8.1 6.6 3.1 71 2.2 CALM 0 11 0 6 1014.9 1014.8 0.0
16/12:00am 8.8 6.6 3.1 67 2.5 SW 4 9 2 5 1015.4 1015.2 0.0
 
Date/Time
EST
Temp
°C
App
Temp
°C
Dew
Point
°C
Rel
Hum
%
Delta-T
°C
Wind Press
QNH
hPa
Press
MSL
hPa
Rain since
9am
mm
Dir  Spd
km/h
Gust
km/h
Spd
kts
Gust
kts
15/11:30pm 9.5 7.5 4.5 71 2.3 SSW 4 7 2 4 1015.6 1015.4 0.0
15/11:00pm 10.1 7.9 3.1 62 3.1 SSW 4 7 2 4 1015.6 1015.4 0.0
15/10:30pm 11.2 8.5 2.7 56 3.8 SSW 6 9 3 5 1015.7 1015.5 0.0
15/10:11pm 13.1 10.6 3.6 52 4.4 NE 6 15 3 8 1015.7 1015.5 0.0
15/10:00pm 18.1 14.3 3.8 38 6.9 N 13 24 7 13 1015.6 1015.4 0.0
15/09:56pm 18.6 15.4 2.8 35 7.5 NNW 9 24 5 13 1015.6 1015.4 0.0
15/09:30pm 12.8 9.2 3.1 51 4.4 WSW 11 13 6 7 1015.5 1015.3 0.0
15/09:19pm 13.4 10.7 2.9 49 4.8 NW 6 13 3 7 1015.4 1015.2 0.0
15/09:00pm 18.4 14.3 4.2 39 6.9 NNE 15 20 8 11 1015.4 1015.2 0.0
15/08:30pm 18.8 14.3 4.3 38 7.1 N 17 20 9 11 1015.3 1015.1 0.0
15/08:00pm 19.4 14.4 3.8 35 7.6 N 19 24 10 13 1015.2 1015.0 0.0
15/07:30pm 18.3 13.9 4.6 40 6.7 N 17 20 9 11 1014.9 1014.8 0.0
15/07:00pm 18.0 13.6 5.0 42 6.4 N 17 20 9 11 1014.7 1014.6 0.0
15/06:30pm 19.4 15.2 5.5 40 7.0 N 17 22 9 12 1014.6 1014.5 0.0
15/06:00pm 21.2 17.9 6.6 38 7.6 NNW 13 17 7 9 1014.4 1014.3 0.0
15/05:30pm 22.6 19.4 6.8 36 8.3 NNW 13 17 7 9 1014.4 1014.3 0.0
15/05:00pm 23.9 21.2 7.2 34 8.9 NNW 11 17 6 9 1014.3 1014.1 0.0
15/04:30pm 25.2 23.0 7.7 32 9.5 NNW 9 13 5 7 1014.3 1014.1 0.0
15/04:00pm 25.4 23.2 7.7 32 9.6 NW 9 19 5 10 1014.5 1014.4 0.0
15/03:30pm 26.2 23.5 5.4 26 10.9 NW 9 19 5 10 1014.4 1014.3 0.0
15/03:00pm 26.2 24.5 7.4 30 10.2 NNW 6 11 3 6 1014.5 1014.4 0.0
15/02:30pm 26.1 24.5 6.4 28 10.5 SSW 4 7 2 4 1014.6 1014.5 0.0
15/02:00pm 25.9 23.3 4.2 24 11.1 N 7 22 4 12 1015.1 1014.9 0.0
15/01:30pm 25.8 22.1 4.3 25 11.0 W 13 22 7 12 1015.4 1015.2 0.0
15/01:00pm 25.3 22.8 3.7 24 10.9 SW 6 11 3 6 1015.4 1015.2 0.0
15/12:30pm 25.4 22.8 4.2 25 10.8 NNE 7 17 4 9 1016.4 1016.3 0.0
15/12:00pm 24.1 22.1 2.4 24 10.6 W 2 9 1 5 1016.9 1016.8 0.0
15/11:30am 23.8 21.8 4.5 28 9.8 N 4 11 2 6 1017.8 1017.6 0.0
15/11:00am 22.6 19.3 0.2 22 10.4 ENE 7 11 4 6 1018.4 1018.3 0.0
15/10:30am 20.6 18.2 2.0 29 8.8 SSW 4 6 2 3 1019.0 1018.9 0.0
15/10:00am 18.5 15.9 0.9 30 8.0 SSE 4 7 2 4 1019.6 1019.4 0.0
15/09:30am 17.1 15.3 1.5 35 7.1 CALM 0 7 0 4 1019.9 1019.8 0.0
15/09:00am 13.9 11.0 1.2 42 5.6 NE 6 9 3 5 1020.1 1020.0 0.0
15/08:30am 11.3 9.5 1.3 50 4.3 CALM 0 0 0 0 1020.5 1020.4 0.0
15/08:00am 7.3 5.5 1.0 64 2.6 CALM 0 0 0 0 1020.3 1020.2 0.0
15/07:30am 5.0 3.0 0.2 71 1.9 CALM 0 0 0 0 1020.2 1020.1 0.0

Other Formats:

Comma delimited format used in spreadsheet applications
http://www.bom.gov.au/fwo/IDQ60801/IDQ60801.94555.axf

JavaScript Object Notation format (JSON) in row-major order
http://www.bom.gov.au/fwo/IDQ60801/IDQ60801.94555.json